Terminal Aerodrome Forecast
Issued by NWS

Home | Current Version | Previous Version | Text Only | Print | Product List | Glossary On
Versions: 1 2 3 4 5 6 7 8 9 10 11 12 13 14 15 16 17 18 19 20 21 22 23 24 25 26 27 28 29 30 31 32 33 34 35 36 37 38 39 40 41 42 43 44
000
FTUS41 KBOX 282332
TAFHYA
TAF
KHYA 282332Z 2900/2924 01009KT 4SM -SN BR OVC008
     FM290400 36006KT 3SM -SN OVC015
     FM290500 01006KT 3SM -SN OVC030
     FM290700 02007KT P6SM OVC035
     FM291800 01006KT P6SM SCT250
     FM292000 26005KT P6SM SCT250=

USA.gov is the U.S. government's official web portal to all federal, state and local government web resources and services.